Time;durP1;ratioP1;P1;durP2;ratioP2;P2;SDS_P1;SDS_P2;PMS_P1;PMS_P2;Temp;Humidity;BMP_temperature;BMP_pressure;BME280_temperature;BME280_humidity;BME280_pressure;Samples;Min_cycle;Max_cycle;Signal;HPM_P1;HPM_P2
2021/12/12 00:01:23;;;;;;;5.82;2.30;;;;;;;18.59;41.93;101973.53;5032685;28;20029;-65
2021/12/12 00:03:53;;;;;;;7.63;2.33;;;;;;;18.56;41.97;101974.56;5031646;28;20040;-66
2021/12/12 00:06:23;;;;;;;6.00;2.58;;;;;;;18.56;41.81;101968.44;5032906;28;20188;-66
2021/12/12 00:08:54;;;;;;;5.20;2.20;;;;;;;18.53;41.82;101974.75;5032228;28;20540;-66
2021/12/12 00:11:22;;;;;;;4.82;2.25;;;;;;;18.52;41.64;101973.09;5031846;28;20098;-66
2021/12/12 00:13:57;;;;;;;4.55;2.30;;;;;;;18.51;41.76;101976.66;5032200;28;20021;-65
2021/12/12 00:16:27;;;;;;;7.00;2.53;;;;;;;18.47;41.94;101954.91;5031984;28;20068;-65
2021/12/12 00:18:52;;;;;;;5.50;2.63;;;;;;;18.47;41.71;101960.19;5032389;28;20041;-65
2021/12/12 00:21:20;;;;;;;6.13;2.70;;;;;;;18.46;41.93;101957.66;5032503;28;20488;-65
2021/12/12 00:23:49;;;;;;;6.60;2.33;;;;;;;18.44;41.83;101963.03;5031509;28;20048;-64
2021/12/12 00:26:14;;;;;;;7.20;2.40;;;;;;;18.42;41.65;101962.28;5032485;28;20172;-64
2021/12/12 00:28:40;;;;;;;5.65;2.35;;;;;;;18.41;41.92;101962.38;5032065;28;20076;-65
2021/12/12 00:31:10;;;;;;;4.75;2.22;;;;;;;18.40;41.86;101955.41;5031846;28;20099;-65
2021/12/12 00:33:37;;;;;;;5.13;2.00;;;;;;;18.37;41.45;101953.78;5032729;28;20366;-66
2021/12/12 00:36:04;;;;;;;6.22;2.45;;;;;;;18.38;41.51;101960.78;5032199;28;20033;-66
2021/12/12 00:38:32;;;;;;;5.10;2.33;;;;;;;18.33;41.67;101941.75;5031595;28;20044;-65
2021/12/12 00:41:10;;;;;;;4.93;2.20;;;;;;;18.33;41.63;101947.03;5031971;28;20037;-66
2021/12/12 00:43:42;;;;;;;6.38;2.40;;;;;;;18.31;41.61;101952.41;5032170;28;20037;-65
2021/12/12 00:46:10;;;;;;;6.32;2.50;;;;;;;18.29;41.43;101943.75;5031414;28;20397;-64
2021/12/12 00:48:38;;;;;;;4.90;2.33;;;;;;;18.29;41.76;101946.41;5032381;28;20017;-66
2021/12/12 00:51:07;;;;;;;5.72;2.08;;;;;;;18.27;41.57;101942.16;5031984;28;20045;-65
2021/12/12 00:53:32;;;;;;;6.65;2.33;;;;;;;18.26;41.65;101946.59;5031357;28;20034;-65
2021/12/12 00:55:58;;;;;;;5.30;2.20;;;;;;;18.26;41.98;101945.72;5031833;28;20101;-66
2021/12/12 00:58:24;;;;;;;5.20;2.13;;;;;;;18.23;41.88;101927.47;5032115;28;20470;-65
2021/12/12 01:01:04;;;;;;;5.93;2.30;;;;;;;18.23;41.67;101930.09;5031076;28;20041;-65
2021/12/12 01:03:33;;;;;;;5.32;2.10;;;;;;;18.21;41.84;101930.19;5032157;28;20044;-66
2021/12/12 01:06:04;;;;;;;5.53;2.15;;;;;;;18.20;41.60;101927.66;5030945;28;20029;-65
2021/12/12 01:08:33;;;;;;;5.68;2.50;;;;;;;18.19;41.52;101918.06;5033097;28;20032;-65
2021/12/12 01:11:17;;;;;;;5.10;2.30;;;;;;;18.19;41.68;101928.63;5035426;28;20075;-65
2021/12/12 01:13:46;;;;;;;6.68;2.50;;;;;;;18.17;41.70;101927.88;5034923;28;20112;-65
2021/12/12 01:16:21;;;;;;;7.07;2.30;;;;;;;18.17;41.83;101930.53;5035483;28;20472;-65
2021/12/12 01:18:52;;;;;;;5.80;2.40;;;;;;;18.16;41.97;101928.81;5035408;28;20385;-64
2021/12/12 01:21:29;;;;;;;5.30;2.13;;;;;;;18.13;41.57;101933.34;5035053;28;20117;-65
2021/12/12 01:24:03;;;;;;;5.32;2.15;;;;;;;18.13;41.86;101927.22;5035400;28;20024;-65
2021/12/12 01:26:29;;;;;;;;;;;;;;;18.09;41.81;101926.56;5036030;28;20032;-65
2021/12/12 01:28:55;;;;;;;5.60;2.28;;;;;;;18.11;41.52;101929.94;5033620;28;20004;-65
2021/12/12 01:31:25;;;;;;;5.72;2.67;;;;;;;18.10;41.61;101924.75;5035647;28;20037;-65
2021/12/12 01:34:09;;;;;;;5.65;2.20;;;;;;;18.09;41.65;101929.19;5034438;28;20109;-64
2021/12/12 01:37:05;;;;;;;5.65;2.08;;;;;;;18.08;41.86;101931.94;5035322;28;20452;-65
2021/12/12 01:39:41;;;;;;;5.22;2.22;;;;;;;18.07;41.68;101933.75;5035213;28;20492;-65
2021/12/12 01:42:29;;;;;;;6.18;2.47;;;;;;;18.05;41.62;101932.13;5034638;28;20033;-64
2021/12/12 01:45:05;;;;;;;5.65;2.10;;;;;;;18.04;41.67;101926.03;5034910;28;20041;-65
2021/12/12 01:47:36;;;;;;;5.90;2.20;;;;;;;18.04;41.96;101920.75;5035279;28;20030;-65
2021/12/12 01:50:09;;;;;;;4.07;1.90;;;;;;;18.03;41.75;101919.03;5034306;28;20052;-65
2021/12/12 01:52:36;;;;;;;5.07;2.20;;;;;;;18.01;41.91;101922.72;5035037;28;20425;-66
2021/12/12 01:55:12;;;;;;;5.88;2.20;;;;;;;18.00;41.65;101927.16;5034162;28;20392;-65
2021/12/12 01:57:41;;;;;;;5.45;2.20;;;;;;;17.99;41.80;101925.47;5035180;28;20458;-65
2021/12/12 02:00:15;;;;;;;5.63;2.28;;;;;;;17.99;41.75;101916.69;5034892;28;20116;-65
2021/12/12 02:02:42;;;;;;;5.05;2.17;;;;;;;17.98;41.95;101917.66;5034233;28;20068;-65
2021/12/12 02:05:18;;;;;;;4.88;2.20;;;;;;;17.97;41.79;101913.31;5035086;28;20029;-65
2021/12/12 02:07:50;;;;;;;4.57;1.90;;;;;;;17.98;41.87;101922.94;5034658;28;20045;-64
2021/12/12 02:10:23;;;;;;;5.18;2.15;;;;;;;17.99;42.07;101919.34;5034512;28;20075;-65
2021/12/12 02:12:49;;;;;;;4.97;2.20;;;;;;;17.98;42.07;101918.50;5034897;28;20505;-65
2021/12/12 02:15:18;;;;;;;6.82;2.30;;;;;;;18.00;42.12;101913.13;5035217;28;20056;-66
2021/12/12 02:17:48;;;;;;;4.88;1.95;;;;;;;18.01;41.90;101910.38;5034180;28;20049;-65
2021/12/12 02:20:30;;;;;;;7.30;2.20;;;;;;;18.03;41.91;101908.50;5034599;28;20064;-65
2021/12/12 02:23:07;;;;;;;4.70;2.00;;;;;;;18.01;41.84;101902.47;5034568;28;20481;-65
2021/12/12 02:36:36;;;;;;;5.50;1.98;;;;;;;18.06;41.83;101905.66;5042075;28;20037;-65
2021/12/12 02:39:08;;;;;;;6.70;2.22;;;;;;;18.05;41.40;101905.75;5042232;28;20056;-66
2021/12/12 02:41:35;;;;;;;5.45;1.92;;;;;;;18.05;41.64;101905.75;5044496;28;20044;-65
2021/12/12 02:44:03;;;;;;;5.40;1.88;;;;;;;18.05;41.61;101901.31;5043676;28;20026;-65
2021/12/12 02:46:36;;;;;;;6.18;2.50;;;;;;;18.05;41.77;101898.69;5036029;28;20088;-64
2021/12/12 02:49:21;;;;;;;5.80;2.22;;;;;;;18.05;41.40;101885.50;5033906;28;20103;-65
2021/12/12 02:51:47;;;;;;;5.75;1.88;;;;;;;18.04;41.62;101889.09;5033255;28;20033;-65
2021/12/12 02:54:12;;;;;;;5.18;1.90;;;;;;;18.05;41.71;101884.66;5033948;28;20133;-65
2021/12/12 02:56:42;;;;;;;4.95;1.80;;;;;;;18.04;41.72;101881.19;5034043;28;20057;-65
2021/12/12 02:59:12;;;;;;;6.28;2.38;;;;;;;18.03;41.40;101870.72;5033223;28;20095;-65
2021/12/12 03:01:49;;;;;;;6.20;2.20;;;;;;;18.03;41.72;101882.13;5033958;28;20043;-65
2021/12/12 03:04:16;;;;;;;4.88;2.20;;;;;;;18.03;41.62;101871.56;5033739;28;20029;-65
2021/12/12 03:06:43;;;;;;;4.80;1.90;;;;;;;18.05;41.67;101871.47;5032723;28;20032;-65
2021/12/12 03:09:13;;;;;;;4.03;1.77;;;;;;;18.04;41.65;101875.03;5033646;28;20033;-65
2021/12/12 03:11:39;;;;;;;6.22;2.00;;;;;;;18.05;41.95;101880.22;5033545;28;20075;-66
2021/12/12 03:14:06;;;;;;;8.40;2.10;;;;;;;18.06;41.80;101876.63;5032891;28;20033;-65
2021/12/12 03:16:32;;;;;;;5.30;2.10;;;;;;;18.06;41.96;101876.63;5033468;28;20045;-66
2021/12/12 03:19:01;;;;;;;4.93;2.05;;;;;;;18.07;41.60;101873.06;5033256;28;20071;-65
2021/12/12 03:21:31;;;;;;;4.43;1.73;;;;;;;18.07;41.61;101873.06;5032405;28;20040;-64
2021/12/12 03:24:06;;;;;;;4.93;2.15;;;;;;;18.08;41.91;101864.19;5033259;28;20083;-64
2021/12/12 03:26:33;;;;;;;4.95;1.90;;;;;;;18.08;41.59;101877.38;5032415;28;20107;-66
2021/12/12 03:29:00;;;;;;;4.88;1.75;;;;;;;18.09;41.75;101862.41;5032987;28;20033;-65
2021/12/12 03:31:35;;;;;;;5.25;1.75;;;;;;;18.08;41.53;101858.91;5032676;28;20370;-65
2021/12/12 03:34:05;;;;;;;4.75;1.95;;;;;;;18.09;41.89;101859.78;5032076;28;20047;-65
2021/12/12 03:36:31;;;;;;;5.45;2.00;;;;;;;18.06;41.52;101850.25;5033345;28;20131;-65
2021/12/12 03:39:03;;;;;;;4.93;2.30;;;;;;;18.08;41.60;101850.16;5032927;28;20042;-65
2021/12/12 03:41:32;;;;;;;5.38;1.83;;;;;;;18.07;41.70;101846.69;5032292;28;20091;-65
2021/12/12 03:44:01;;;;;;;5.13;1.95;;;;;;;18.05;41.30;101851.19;5032664;28;20088;-66
2021/12/12 03:46:28;;;;;;;5.68;1.85;;;;;;;18.05;41.36;101848.56;5032845;28;20025;-66
2021/12/12 03:48:54;;;;;;;6.03;2.22;;;;;;;18.02;41.44;101840.00;5032105;28;20040;-66
2021/12/12 03:51:23;;;;;;;5.50;2.10;;;;;;;18.03;41.71;101850.47;5032962;28;20101;-64
2021/12/12 03:53:49;;;;;;;4.78;1.70;;;;;;;18.04;41.40;101851.28;5032488;28;20376;-64
2021/12/12 03:56:16;;;;;;;3.88;1.50;;;;;;;18.01;41.51;101844.44;5032313;28;20063;-64
2021/12/12 03:58:42;;;;;;;5.32;1.95;;;;;;;18.02;41.88;101853.19;5032545;28;20029;-64
2021/12/12 04:01:31;;;;;;;5.07;2.00;;;;;;;18.02;41.66;101843.47;5032630;28;20025;-65
2021/12/12 04:04:01;;;;;;;4.57;1.95;;;;;;;18.03;41.86;101847.81;5032622;28;20045;-65
2021/12/12 04:06:30;;;;;;;5.00;1.70;;;;;;;18.02;41.75;101840.84;5032541;28;20025;-65
2021/12/12 04:08:57;;;;;;;4.10;1.40;;;;;;;18.04;41.99;101841.63;5031606;28;20026;-66
2021/12/12 04:11:29;;;;;;;4.95;1.60;;;;;;;18.05;41.96;101850.34;5032601;28;20132;-66
2021/12/12 04:13:57;;;;;;;6.95;1.80;;;;;;;18.04;41.53;101846.88;5032499;28;20333;-65
2021/12/12 04:16:26;;;;;;;4.97;2.22;;;;;;;18.05;41.81;101850.34;5031530;28;20033;-65
2021/12/12 04:18:57;;;;;;;4.75;1.58;;;;;;;18.05;41.61;101838.00;5032165;28;20037;-65
2021/12/12 04:21:24;;;;;;;5.78;2.10;;;;;;;18.05;41.84;101853.00;5032582;28;20109;-65
2021/12/12 04:23:50;;;;;;;5.05;2.00;;;;;;;18.05;41.55;101853.00;5031458;28;20022;-64
2021/12/12 04:26:22;;;;;;;4.38;1.73;;;;;;;18.06;41.58;101854.69;5032691;28;20033;-65
2021/12/12 04:28:55;;;;;;;4.45;1.80;;;;;;;18.03;41.78;101862.81;5032261;28;20022;-65
2021/12/12 04:31:21;;;;;;;4.80;1.80;;;;;;;18.03;41.50;101847.81;5031655;28;20030;-65
2021/12/12 04:33:46;;;;;;;4.70;1.63;;;;;;;18.05;41.70;101860.91;5032088;28;20037;-65
2021/12/12 04:36:11;;;;;;;6.45;1.80;;;;;;;18.04;41.84;101860.06;5032404;28;20424;-65
2021/12/12 04:38:37;;;;;;;4.82;1.65;;;;;;;18.03;41.75;101857.53;5031631;28;20023;-66
2021/12/12 04:41:02;;;;;;;3.83;1.58;;;;;;;18.02;41.70;101851.38;5032162;28;20040;-65
2021/12/12 04:43:27;;;;;;;4.53;1.75;;;;;;;18.01;41.72;101851.50;5034970;28;20108;-65
2021/12/12 04:46:03;;;;;;;4.97;1.80;;;;;;;18.03;41.87;101846.97;5035240;28;20396;-65
2021/12/12 04:51:41;;;;;;;3.90;1.50;;;;;;;18.04;42.14;101852.16;5035887;28;20052;-65
2021/12/12 04:54:28;;;;;;;4.63;1.55;;;;;;;18.05;41.88;101855.63;5036271;28;20025;-66
2021/12/12 04:57:02;;;;;;;3.72;1.30;;;;;;;18.06;41.95;101857.34;5036003;28;20032;-66
2021/12/12 04:59:47;;;;;;;4.00;1.60;;;;;;;18.05;41.67;101859.09;5035306;28;20041;-65
2021/12/12 05:02:34;;;;;;;3.72;1.42;;;;;;;18.05;41.88;101853.00;5036264;28;20048;-65
2021/12/12 05:05:11;;;;;;;4.70;1.55;;;;;;;18.06;41.79;101865.25;5035113;28;20402;-66
2021/12/12 05:08:03;;;;;;;4.38;1.52;;;;;;;18.06;41.74;101866.09;5035906;28;20029;-66
2021/12/12 05:10:39;;;;;;;3.55;1.30;;;;;;;18.06;41.89;101873.16;5035953;28;20477;-66
2021/12/12 05:13:17;;;;;;;3.95;1.20;;;;;;;18.06;41.81;101873.16;5035406;28;20056;-66
2021/12/12 05:15:47;;;;;;;3.25;1.40;;;;;;;18.05;41.88;101874.94;5035576;28;20029;-66
2021/12/12 05:18:15;;;;;;;3.28;1.25;;;;;;;18.05;41.94;101874.94;5035562;28;20060;-65
2021/12/12 05:20:48;;;;;;;4.47;1.60;;;;;;;18.04;41.82;101878.53;5034458;28;20452;-66
2021/12/12 05:23:18;;;;;;;3.23;1.13;;;;;;;18.06;42.12;101871.38;5035753;28;20030;-67
2021/12/12 05:25:56;;;;;;;3.40;1.20;;;;;;;18.06;42.44;101881.91;5035465;28;20267;-66
2021/12/12 05:28:41;;;;;;;3.75;1.63;;;;;;;18.06;42.32;101874.00;5035558;28;20026;-65
2021/12/12 05:31:08;;;;;;;3.45;1.20;;;;;;;18.07;42.29;101877.47;5035769;28;20022;-65
2021/12/12 05:33:34;;;;;;;4.47;1.40;;;;;;;18.07;42.37;101880.97;5034828;28;20116;-65
2021/12/12 05:36:01;;;;;;;2.63;1.10;;;;;;;18.08;42.17;101876.53;5035195;28;20029;-65
2021/12/12 05:38:29;;;;;;;3.70;1.38;;;;;;;18.08;42.22;101877.38;5035504;28;20072;-65
2021/12/12 05:40:57;;;;;;;3.88;1.30;;;;;;;18.09;42.17;101875.59;5034130;28;20069;-65
2021/12/12 05:43:23;;;;;;;3.00;1.30;;;;;;;18.08;41.69;101871.25;5035634;28;20029;-66
2021/12/12 05:45:51;;;;;;;2.90;1.17;;;;;;;18.08;41.68;101869.47;5035164;28;20034;-65
2021/12/12 05:48:16;;;;;;;3.58;1.25;;;;;;;18.08;41.93;101885.28;5034586;28;20033;-65
2021/12/12 05:50:50;;;;;;;2.72;1.20;;;;;;;18.07;41.91;101880.97;5034921;28;20488;-65
2021/12/12 05:53:15;;;;;;;3.28;1.35;;;;;;;18.08;42.20;101889.72;5035057;28;20021;-64
2021/12/12 05:55:42;;;;;;;3.17;1.30;;;;;;;18.07;42.25;101883.63;5033308;28;20436;-66
2021/12/12 05:58:11;;;;;;;2.90;1.30;;;;;;;18.09;42.52;101888.78;5034418;28;20115;-66
2021/12/12 06:00:58;;;;;;;4.18;1.30;;;;;;;18.09;43.31;101891.44;5035018;28;20048;-66
2021/12/12 06:03:27;;;;;;;3.65;1.15;;;;;;;18.09;43.32;101894.06;5034869;28;20049;-66
2021/12/12 06:05:54;;;;;;;2.97;1.23;;;;;;;18.10;43.55;101901.03;5034502;28;20037;-66
2021/12/12 06:08:22;;;;;;;3.58;1.20;;;;;;;18.11;43.73;101900.09;5034278;28;20092;-65
2021/12/12 06:10:49;;;;;;;4.32;1.13;;;;;;;18.12;43.87;101905.25;5034547;28;20030;-66
2021/12/12 06:13:17;;;;;;;2.42;1.10;;;;;;;18.15;43.88;101906.00;5034834;28;20405;-66
2021/12/12 06:15:45;;;;;;;2.20;1.02;;;;;;;18.16;43.61;101912.97;5033805;28;20120;-66
2021/12/12 06:18:11;;;;;;;2.22;0.90;;;;;;;18.19;43.91;101910.16;5034430;28;20520;-65
2021/12/12 06:20:37;;;;;;;2.85;1.08;;;;;;;18.20;43.51;101909.19;5034462;28;20048;-65
2021/12/12 06:23:03;;;;;;;3.30;1.10;;;;;;;18.20;43.94;101915.31;5033735;28;20025;-65
2021/12/12 06:25:28;;;;;;;1.92;0.93;;;;;;;18.21;43.69;101906.44;5034786;28;20029;-66
2021/12/12 06:27:54;;;;;;;1.98;0.95;;;;;;;18.24;43.57;101908.06;5034510;28;20061;-65
2021/12/12 06:30:21;;;;;;;1.77;0.88;;;;;;;18.25;43.49;101897.41;5033812;28;20088;-66
2021/12/12 06:32:49;;;;;;;2.53;0.98;;;;;;;18.27;43.91;101900.78;5034169;28;20032;-65
2021/12/12 06:35:15;;;;;;;3.15;1.15;;;;;;;18.27;43.67;101900.78;5034139;28;20021;-66
2021/12/12 06:37:42;;;;;;;2.33;0.93;;;;;;;18.30;43.67;101907.66;5033411;28;20099;-65
2021/12/12 06:40:10;;;;;;;2.75;1.00;;;;;;;18.31;43.63;101902.28;5034268;28;20037;-65
2021/12/12 06:42:36;;;;;;;2.80;0.90;;;;;;;18.31;43.59;101899.63;5033972;28;20040;-66
2021/12/12 06:45:03;;;;;;;2.25;0.80;;;;;;;18.33;43.59;101910.09;5033248;28;20021;-64
2021/12/12 06:47:29;;;;;;;2.22;1.00;;;;;;;18.34;43.75;101906.53;5034045;28;20116;-65
2021/12/12 06:49:55;;;;;;;2.10;0.95;;;;;;;18.36;43.64;101914.31;5033717;28;20417;-64
2021/12/12 06:52:21;;;;;;;3.13;1.10;;;;;;;18.36;44.03;101906.38;5033476;28;20520;-65
2021/12/12 06:54:51;;;;;;;2.55;0.90;;;;;;;18.38;44.14;101915.06;5033814;28;20416;-65
2021/12/12 06:57:19;;;;;;;2.38;0.93;;;;;;;18.40;43.66;101913.19;5033262;28;20025;-65
2021/12/12 06:59:46;;;;;;;3.22;1.23;;;;;;;18.39;43.60;101917.63;5033553;28;20432;-65
2021/12/12 07:02:12;;;;;;;2.83;1.00;;;;;;;18.40;43.85;101919.28;5033728;28;20497;-66
2021/12/12 07:04:40;;;;;;;3.38;0.90;;;;;;;18.41;43.79;101921.00;5032867;28;20038;-66
2021/12/12 07:07:10;;;;;;;1.95;0.80;;;;;;;18.43;43.68;101926.16;5032874;28;20076;-65
2021/12/12 07:09:37;;;;;;;1.88;0.80;;;;;;;18.43;43.52;101927.00;5033882;28;20038;-65
2021/12/12 07:12:07;;;;;;;2.75;0.80;;;;;;;18.44;43.90;101927.88;5032512;28;20044;-65
2021/12/12 07:14:33;;;;;;;2.47;1.00;;;;;;;18.45;43.77;101924.28;5033657;28;20087;-65
2021/12/12 07:16:59;;;;;;;2.65;0.90;;;;;;;18.44;43.85;101919.97;5033015;28;20057;-67
2021/12/12 07:19:27;;;;;;;2.72;1.00;;;;;;;18.46;44.07;101924.16;5032941;28;20112;-66
2021/12/12 07:21:56;;;;;;;2.63;0.90;;;;;;;18.46;43.62;101929.44;5033447;28;20442;-66
2021/12/12 07:24:23;;;;;;;2.60;0.90;;;;;;;18.48;43.68;101924.06;5033480;28;20065;-66
2021/12/12 07:26:48;;;;;;;2.08;0.80;;;;;;;18.48;44.12;101924.94;5032435;28;20057;-66
2021/12/12 07:29:14;;;;;;;2.47;1.25;;;;;;;18.48;43.93;101930.22;5033323;28;20060;-66
2021/12/12 07:31:40;;;;;;;2.17;0.82;;;;;;;18.49;43.84;101931.06;5032225;28;20049;-66
2021/12/12 07:34:10;;;;;;;2.33;0.90;;;;;;;18.51;44.15;101923.03;5032621;28;20029;-66
2021/12/12 07:36:40;;;;;;;2.70;0.90;;;;;;;18.52;44.01;101927.34;5033274;28;20032;-66
2021/12/12 07:39:09;;;;;;;2.08;0.90;;;;;;;18.53;43.91;101921.97;5033146;28;20017;-66
2021/12/12 07:41:37;;;;;;;1.95;0.80;;;;;;;18.53;43.92;101932.53;5032306;28;20064;-66
2021/12/12 07:44:07;;;;;;;4.10;1.00;;;;;;;18.54;43.71;101931.59;5032760;28;20033;-65
2021/12/12 07:46:33;;;;;;;1.92;0.80;;;;;;;18.53;43.96;101932.53;5032813;28;20076;-65
2021/12/12 07:48:58;;;;;;;1.98;0.90;;;;;;;18.53;44.08;101931.69;5032853;28;20025;-65
2021/12/12 07:51:25;;;;;;;2.58;0.80;;;;;;;18.55;44.17;101933.28;5033019;28;20100;-65
2021/12/12 07:53:54;;;;;;;2.55;0.98;;;;;;;18.56;44.35;101934.97;5032071;28;20033;-68
2021/12/12 07:56:22;;;;;;;3.22;1.02;;;;;;;18.60;44.75;101939.09;5032913;28;20477;-66
2021/12/12 07:58:48;;;;;;;2.50;0.90;;;;;;;18.65;44.85;101929.09;5032692;28;20060;-68
2021/12/12 08:01:14;;;;;;;3.17;0.90;;;;;;;18.77;46.17;101940.63;5034153;28;20136;-66
2021/12/12 08:03:41;;;;;;;2.92;1.20;;;;;;;18.90;46.76;101938.06;5033267;28;20060;-68
2021/12/12 08:06:09;;;;;;;2.85;0.98;;;;;;;19.03;46.79;101948.63;5033079;28;20095;-65
2021/12/12 08:08:35;;;;;;;4.03;1.08;;;;;;;19.12;46.80;101945.38;5032127;28;20083;-65
2021/12/12 08:11:01;;;;;;;3.10;1.00;;;;;;;19.19;46.93;101948.44;5032795;28;20428;-68
2021/12/12 08:13:28;;;;;;;3.25;1.10;;;;;;;19.25;46.51;101944.50;5033159;28;20026;-68
2021/12/12 08:15:53;;;;;;;2.67;1.10;;;;;;;19.30;46.62;101953.81;5032173;28;20084;-64
2021/12/12 08:18:20;;;;;;;4.82;1.30;;;;;;;19.37;46.43;101959.53;5032731;28;20045;-63
2021/12/12 08:20:50;;;;;;;4.18;1.00;;;;;;;19.40;46.44;101951.38;5032458;28;20040;-68
2021/12/12 08:23:16;;;;;;;3.65;1.10;;;;;;;19.43;46.56;101966.19;5031756;28;20025;-68
2021/12/12 08:25:45;;;;;;;3.40;1.00;;;;;;;19.44;46.75;101967.88;5032422;28;20074;-68
2021/12/12 08:28:12;;;;;;;4.75;1.35;;;;;;;19.49;46.10;101973.72;5032964;28;20120;-65
2021/12/12 08:30:41;;;;;;;4.15;1.27;;;;;;;19.56;46.38;101965.22;5032208;28;20104;-68
2021/12/12 08:33:08;;;;;;;5.30;1.02;;;;;;;19.61;46.34;101975.47;5032936;28;20095;-67
2021/12/12 08:35:34;;;;;;;4.68;1.17;;;;;;;19.64;46.58;101985.84;5032480;28;20523;-68
2021/12/12 08:38:03;;;;;;;3.17;1.00;;;;;;;19.63;46.82;101983.31;5031670;28;20393;-62
2021/12/12 08:40:34;;;;;;;6.40;1.20;;;;;;;19.64;46.95;101983.22;5033096;28;20116;-64
2021/12/12 08:43:00;;;;;;;5.28;1.27;;;;;;;19.65;47.42;101994.66;5031669;28;20032;-63
2021/12/12 08:45:32;;;;;;;6.60;1.27;;;;;;;19.64;47.33;101980.56;5032447;28;20112;-64
2021/12/12 08:48:00;;;;;;;7.32;1.50;;;;;;;19.65;47.43;101979.63;5032570;28;20458;-68
2021/12/12 08:50:29;;;;;;;6.57;1.42;;;;;;;19.66;46.33;101985.75;5033169;28;20028;-69
2021/12/12 08:52:55;;;;;;;6.82;1.35;;;;;;;19.64;47.14;101988.50;5033428;28;20046;-64
2021/12/12 08:55:32;;;;;;;7.00;1.33;;;;;;;19.68;47.10;101995.28;5032938;28;20026;-67
2021/12/12 08:58:14;;;;;;;6.20;1.40;;;;;;;19.71;47.27;101991.53;5031471;28;20102;-66
2021/12/12 09:00:44;;;;;;;8.07;1.50;;;;;;;19.72;47.36;101993.25;5033535;28;20021;-63
2021/12/12 09:03:09;;;;;;;5.88;1.67;;;;;;;19.72;47.54;102001.19;5033026;28;20086;-63
2021/12/12 09:05:38;;;;;;;6.00;1.38;;;;;;;19.70;47.45;102003.94;5031639;28;20525;-63
2021/12/12 09:08:08;;;;;;;8.68;1.90;;;;;;;19.68;47.34;102012.94;5032084;28;20465;-64
2021/12/12 09:10:40;;;;;;;7.55;1.73;;;;;;;19.65;47.72;102008.72;5032832;28;20030;-65
2021/12/12 09:13:11;;;;;;;6.70;1.48;;;;;;;19.65;47.54;102005.22;5032039;28;20037;-65
2021/12/12 09:15:44;;;;;;;5.28;1.27;;;;;;;19.64;47.43;102003.53;5033104;28;20032;-65
2021/12/12 09:18:19;;;;;;;7.95;1.65;;;;;;;19.65;47.77;102010.50;5032604;28;20508;-67
2021/12/12 09:21:24;;;;;;;6.55;1.40;;;;;;;19.65;47.79;102013.16;5033762;28;20116;-65
2021/12/12 09:24:16;;;;;;;8.75;1.63;;;;;;;19.64;47.84;102017.59;5032118;28;20511;-64
2021/12/12 09:26:50;;;;;;;9.13;1.83;;;;;;;19.61;48.17;102020.44;5031247;28;20037;-65
2021/12/12 09:29:22;;;;;;;7.35;1.60;;;;;;;19.58;48.01;102023.28;5032492;28;20048;-66
2021/12/12 09:32:02;;;;;;;6.85;1.45;;;;;;;19.55;47.63;102019.09;5035378;28;20080;-68
2021/12/12 09:34:48;;;;;;;9.50;1.58;;;;;;;19.56;47.98;102035.78;5035781;28;20437;-66
2021/12/12 09:37:22;;;;;;;7.38;1.90;;;;;;;19.55;47.88;102029.66;5036048;28;20087;-64
2021/12/12 09:39:50;;;;;;;;;;;;;;;19.54;47.96;102032.41;5035098;28;20022;-64
2021/12/12 09:42:53;;;;;;;8.52;1.75;;;;;;;19.55;48.26;102037.59;5035553;28;19913;-64
2021/12/12 09:45:37;;;;;;;8.02;2.05;;;;;;;19.55;48.15;102034.06;5004389;28;20122;-65
2021/12/12 09:51:47;;;;;;;5.60;1.70;;;;;;;19.53;48.84;102042.13;5035569;28;20044;-67
2021/12/12 09:54:26;;;;;;;7.72;1.92;;;;;;;19.48;48.83;102049.53;5034871;28;20439;-65
2021/12/12 09:57:16;;;;;;;9.45;1.70;;;;;;;19.46;48.80;102046.16;5035449;28;20032;-65
2021/12/12 10:00:06;;;;;;;9.70;2.00;;;;;;;19.46;49.07;102053.25;5035249;28;20041;-64
2021/12/12 10:02:37;;;;;;;9.60;2.38;;;;;;;19.45;49.06;102054.19;5035608;28;20104;-66
2021/12/12 10:05:06;;;;;;;9.70;1.73;;;;;;;19.45;49.33;102047.09;5035078;28;20032;-66
2021/12/12 10:07:58;;;;;;;8.60;1.80;;;;;;;19.44;49.21;102050.69;5034859;28;20036;-66
2021/12/12 10:11:05;;;;;;;7.85;1.55;;;;;;;19.43;49.08;102043.72;5035460;28;20025;-68
2021/12/12 10:13:44;;;;;;;11.98;2.47;;;;;;;19.44;49.04;102052.47;4987558;28;20128;-66
2021/12/12 10:16:20;;;;;;;10.63;2.55;;;;;;;19.45;49.13;102049.72;5034374;28;20038;-69
2021/12/12 10:18:48;;;;;;;10.73;2.35;;;;;;;19.45;48.98;102051.53;5035108;28;20033;-66
2021/12/12 10:21:26;;;;;;;10.18;2.55;;;;;;;19.42;48.73;102047.28;5034300;28;20033;-67
2021/12/12 10:24:32;;;;;;;10.88;2.47;;;;;;;19.35;48.82;102051.31;5034219;28;20545;-66
2021/12/12 10:27:17;;;;;;;10.30;2.15;;;;;;;19.28;49.35;102053.53;5033642;28;20095;-66
2021/12/12 10:30:00;;;;;;;11.63;2.33;;;;;;;19.20;49.48;102046.13;5032791;28;20045;-66
2021/12/12 10:32:29;;;;;;;12.35;2.42;;;;;;;19.14;49.84;102049.16;5034480;28;20038;-67
2021/12/12 10:35:19;;;;;;;12.30;3.10;;;;;;;19.10;50.02;102054.75;5034029;28;20079;-66
2021/12/12 10:37:54;;;;;;;12.00;2.40;;;;;;;19.06;50.16;102055.88;5034215;28;20033;-66
2021/12/12 10:40:41;;;;;;;10.30;2.22;;;;;;;18.99;50.14;102048.41;5034005;28;20068;-65
2021/12/12 10:43:13;;;;;;;9.80;2.10;;;;;;;18.97;50.22;102054.72;5033327;28;20112;-66
2021/12/12 10:45:46;;;;;;;8.35;2.03;;;;;;;18.94;50.36;102054.91;5034357;28;20112;-65
2021/12/12 10:48:16;;;;;;;10.37;2.27;;;;;;;18.92;50.32;102052.38;5034204;28;20060;-65
2021/12/12 10:51:08;;;;;;;10.27;2.42;;;;;;;18.91;50.42;102055.94;5032061;28;20381;-66
2021/12/12 10:53:59;;;;;;;13.02;2.58;;;;;;;18.89;50.74;102054.38;5033868;28;20033;-66
2021/12/12 10:56:58;;;;;;;10.95;2.00;;;;;;;18.87;50.63;102050.97;5033316;28;20032;-66
2021/12/12 10:59:47;;;;;;;15.27;2.53;;;;;;;18.84;50.42;102049.38;5033802;28;20029;-66
2021/12/12 11:02:18;;;;;;;12.27;2.70;;;;;;;18.82;50.71;102054.75;5033844;28;20481;-66
2021/12/12 11:05:01;;;;;;;14.05;3.05;;;;;;;18.81;50.63;102058.31;5032886;28;20382;-66
2021/12/12 11:07:36;;;;;;;10.93;2.33;;;;;;;18.80;50.26;102061.94;5033803;28;20056;-66
2021/12/12 11:10:12;;;;;;;12.48;2.05;;;;;;;18.79;50.42;102054.94;5033335;28;20499;-66
2021/12/12 11:12:45;;;;;;;9.75;2.58;;;;;;;18.77;50.33;102048.03;5033092;28;20026;-67
2021/12/12 11:15:27;;;;;;;9.85;2.25;;;;;;;18.77;50.68;102053.31;5033597;28;20037;-64
2021/12/12 11:18:07;;;;;;;11.60;2.35;;;;;;;18.78;50.38;102055.03;5032297;28;20046;-64
2021/12/12 11:20:38;;;;;;;11.48;2.17;;;;;;;18.77;50.66;102048.91;5033397;28;20110;-66
2021/12/12 11:23:39;;;;;;;12.45;3.22;;;;;;;18.76;50.92;102052.50;5033649;28;20029;-66
2021/12/12 11:26:10;;;;;;;11.98;2.63;;;;;;;18.81;51.15;102053.03;5033014;28;20037;-62
2021/12/12 11:28:43;;;;;;;15.30;2.38;;;;;;;18.89;51.09;102051.72;5033691;28;20036;-63
2021/12/12 11:31:24;;;;;;;11.23;2.30;;;;;;;18.98;51.17;102046.69;5034056;28;20485;-63
2021/12/12 11:33:52;;;;;;;13.15;2.20;;;;;;;19.08;50.95;102048.72;5033106;28;20029;-66
2021/12/12 11:36:25;;;;;;;14.32;2.50;;;;;;;19.12;50.82;102050.19;5033055;28;20504;-65
2021/12/12 11:39:17;;;;;;;11.93;2.57;;;;;;;19.09;50.52;102045.13;5032219;28;20443;-63
2021/12/12 11:41:55;;;;;;;10.85;2.33;;;;;;;19.06;50.31;102053.25;5032950;28;20040;-64
2021/12/12 11:44:29;;;;;;;9.30;1.88;;;;;;;19.01;50.73;102057.06;5033074;28;20029;-65
2021/12/12 11:46:54;;;;;;;;;;;;;;;18.98;50.77;102053.78;5032199;28;20489;-65
2021/12/12 11:49:29;;;;;;;12.23;2.40;;;;;;;18.96;50.57;102055.66;5033002;28;20476;-67
2021/12/12 11:52:00;;;;;;;9.50;2.42;;;;;;;18.93;50.50;102053.22;5032071;28;20068;-65
2021/12/12 11:54:42;;;;;;;10.27;1.90;;;;;;;18.90;50.65;102053.41;5032434;28;20030;-63
2021/12/12 11:57:13;;;;;;;11.73;2.40;;;;;;;18.88;51.22;102050.88;5032969;28;20021;-63
2021/12/12 11:59:50;;;;;;;13.68;2.30;;;;;;;18.88;51.15;102055.31;5032658;28;20025;-64
2021/12/12 12:02:29;;;;;;;9.73;2.17;;;;;;;18.87;51.16;102057.13;5032673;28;20038;-64
2021/12/12 12:05:14;;;;;;;14.45;2.70;;;;;;;18.87;51.21;102053.59;5032481;28;20038;-65